Time;durP1;ratioP1;P1;durP2;ratioP2;P2;SDS_P1;SDS_P2;PMS_P1;PMS_P2;Temp;Humidity;BMP_temperature;BMP_pressure;BME280_temperature;BME280_humidity;BME280_pressure;Samples;Min_cycle;Max_cycle;Signal;HPM_P1;HPM_P2
2023/06/27 00:01:39;;;;;;;163.90;46.47;;;;;;;26.77;43.47;100265.06;21059424;28;20089;-57
2023/06/27 00:11:40;;;;;;;136.25;40.72;;;;;;;26.69;43.98;100254.69;21053220;28;20340;-57
2023/06/27 00:21:42;;;;;;;120.13;39.15;;;;;;;26.71;43.85;100274.84;21074880;28;20040;-59
2023/06/27 00:31:43;;;;;;;101.07;34.38;;;;;;;26.68;43.73;100257.84;21065227;28;20062;-60
2023/06/27 00:41:44;;;;;;;85.60;33.13;;;;;;;26.66;43.83;100255.34;21075529;28;20032;-59
2023/06/27 00:51:49;;;;;;;74.28;29.77;;;;;;;26.63;43.10;100255.22;21086794;28;20028;-59
2023/06/27 01:01:50;;;;;;;70.78;27.85;;;;;;;26.58;43.15;100275.88;21089330;28;20475;-59
2023/06/27 01:12:09;;;;;;;64.72;26.90;;;;;;;26.49;43.18;100308.75;21065626;28;20066;-58
2023/06/27 01:22:18;;;;;;;57.80;25.95;;;;;;;26.34;43.16;100299.69;21071950;28;20048;-61
2023/06/27 01:32:48;;;;;;;52.03;24.15;;;;;;;26.40;42.81;100327.53;21087029;28;20074;-59
2023/06/27 01:43:01;;;;;;;48.63;22.75;;;;;;;26.43;42.04;100346.50;21084532;28;20040;-58
2023/06/27 01:53:05;;;;;;;39.75;20.90;;;;;;;26.23;42.29;100315.19;21088262;28;20089;-60
2023/06/27 02:03:06;;;;;;;41.03;20.88;;;;;;;26.37;42.63;100315.00;21084107;28;20036;-60
2023/06/27 02:13:08;;;;;;;33.50;19.60;;;;;;;26.32;42.84;100312.38;21083460;28;20044;-59
2023/06/27 02:23:10;;;;;;;35.33;20.40;;;;;;;26.34;43.39;100302.47;21054274;28;20032;-59
2023/06/27 02:33:11;;;;;;;36.47;20.48;;;;;;;26.17;43.01;100265.22;21067118;28;20552;-60
2023/06/27 02:43:13;;;;;;;33.45;18.63;;;;;;;26.32;45.17;100442.22;21069328;28;20051;-59
2023/06/27 02:53:14;;;;;;;29.08;18.15;;;;;;;26.32;47.47;100481.50;21076956;28;20044;-57
2023/06/27 03:03:15;;;;;;;44.67;18.45;;;;;;;26.39;48.21;100441.75;21078932;28;20062;-58
2023/06/27 03:13:17;;;;;;;33.80;16.80;;;;;;;26.64;49.14;100470.13;21080110;28;20047;-58
2023/06/27 03:23:18;;;;;;;34.65;15.65;;;;;;;26.75;49.82;100483.50;21079955;28;20548;-58
2023/06/27 03:33:25;;;;;;;35.35;16.45;;;;;;;26.80;49.90;100462.84;21077910;28;20044;-58
2023/06/27 03:43:26;;;;;;;28.77;14.05;;;;;;;26.93;50.39;100444.16;21032985;28;20181;-57
2023/06/27 03:53:28;;;;;;;29.05;12.57;;;;;;;27.00;50.07;100389.16;21076181;28;20141;-57
2023/06/27 04:03:35;;;;;;;34.50;15.75;;;;;;;26.95;50.51;100448.31;21077544;28;20498;-57
2023/06/27 04:13:37;;;;;;;;;;;;;;;27.10;49.75;100371.13;21077627;28;20044;-60
2023/06/27 04:23:38;;;;;;;31.77;14.85;;;;;;;27.17;50.42;100337.75;21076236;28;19969;-58
2023/06/27 04:33:40;;;;;;;26.92;13.52;;;;;;;27.11;50.38;100362.38;21075530;28;20120;-59
2023/06/27 04:43:41;;;;;;;26.73;12.88;;;;;;;27.25;50.39;100407.09;21075353;28;20066;-58
2023/06/27 04:53:44;;;;;;;25.92;12.18;;;;;;;27.27;50.03;100389.91;21074001;28;20411;-59
2023/06/27 05:03:46;;;;;;;24.73;11.27;;;;;;;27.34;49.98;100376.13;21074931;28;20044;-59
2023/06/27 05:13:47;;;;;;;22.52;11.15;;;;;;;27.36;50.11;100363.41;21074063;28;20063;-58
2023/06/27 05:23:49;;;;;;;22.52;10.75;;;;;;;27.40;49.73;100323.38;21012420;28;20048;-58
2023/06/27 05:33:53;;;;;;;19.88;9.73;;;;;;;27.39;49.58;100318.94;21077272;28;20399;-59
2023/06/27 05:43:54;;;;;;;21.40;11.05;;;;;;;27.46;49.34;100350.97;21077073;28;20472;-58
2023/06/27 05:53:56;;;;;;;19.98;9.95;;;;;;;27.50;49.46;100356.72;21072278;28;20468;-59
2023/06/27 06:03:57;;;;;;;25.23;9.98;;;;;;;27.45;49.20;100292.31;21086813;28;20532;-59
2023/06/27 06:13:58;;;;;;;18.48;9.88;;;;;;;27.51;49.26;100285.31;21085716;28;20040;-59
2023/06/27 06:24:00;;;;;;;22.02;9.60;;;;;;;27.55;48.85;100260.97;21082716;28;20540;-59
2023/06/27 06:34:01;;;;;;;20.30;8.93;;;;;;;27.57;49.23;100250.22;21084205;28;20410;-59
2023/06/27 06:44:05;;;;;;;16.73;8.38;;;;;;;27.60;49.10;100249.53;21083312;28;20123;-59
2023/06/27 06:54:07;;;;;;;16.63;9.95;;;;;;;27.54;49.19;100352.91;21081361;28;20078;-58
2023/06/27 07:04:08;;;;;;;16.98;8.55;;;;;;;27.64;49.30;100405.09;21081836;28;20044;-58
2023/06/27 07:14:18;;;;;;;16.45;7.85;;;;;;;27.66;49.12;100415.97;21083256;28;20591;-58
2023/06/27 07:24:19;;;;;;;15.32;7.00;;;;;;;27.68;49.24;100403.25;21021932;28;20094;-59
2023/06/27 07:34:21;;;;;;;13.40;6.53;;;;;;;27.66;48.87;100343.72;21021127;28;20040;-59
2023/06/27 07:44:25;;;;;;;12.52;7.13;;;;;;;27.70;48.64;100304.50;21035500;28;20040;-59
2023/06/27 07:54:29;;;;;;;13.82;7.65;;;;;;;27.69;48.84;100303.69;21062802;28;20029;-59
2023/06/27 08:04:32;;;;;;;11.85;6.60;;;;;;;27.72;48.85;100272.13;21063027;28;20512;-60
2023/06/27 08:14:33;;;;;;;14.50;6.45;;;;;;;27.73;48.95;100264.50;21076683;28;20039;-59
2023/06/27 08:24:34;;;;;;;10.93;6.25;;;;;;;27.74;48.83;100252.91;21059000;28;20110;-58
2023/06/27 08:34:38;;;;;;;10.07;6.25;;;;;;;27.75;49.01;100245.28;21022339;28;20051;-58
2023/06/27 08:44:43;;;;;;;9.88;5.35;;;;;;;27.75;48.90;100251.72;21050860;28;20094;-58
2023/06/27 08:54:51;;;;;;;9.77;5.75;;;;;;;27.75;48.72;100268.59;21049113;28;20044;-59
2023/06/27 09:04:53;;;;;;;10.50;5.97;;;;;;;27.77;49.02;100310.44;21074925;28;20081;-60
2023/06/27 09:14:55;;;;;;;10.02;5.30;;;;;;;27.77;48.97;100322.50;21078147;28;20556;-57
2023/06/27 09:25:21;;;;;;;8.32;5.63;;;;;;;27.72;49.21;100345.22;21088860;28;20047;-59
2023/06/27 09:35:24;;;;;;;7.35;4.40;;;;;;;27.76;49.00;100340.53;21089451;28;20031;-59
2023/06/27 09:45:29;;;;;;;8.65;4.72;;;;;;;27.79;48.94;100367.97;21061593;28;20048;-59
2023/06/27 09:55:31;;;;;;;7.90;4.75;;;;;;;27.80;49.09;100361.16;21004107;28;20036;-59
2023/06/27 10:05:32;;;;;;;6.50;4.00;;;;;;;27.79;48.97;100334.22;21002985;28;20453;-59
2023/06/27 10:15:35;;;;;;;6.30;4.18;;;;;;;27.80;48.94;100307.75;21078156;28;20048;-59
2023/06/27 10:25:38;;;;;;;7.78;4.35;;;;;;;27.80;49.02;100304.94;21084075;28;20044;-59
2023/06/27 10:35:50;;;;;;;11.50;4.07;;;;;;;27.79;48.88;100286.44;21082299;28;20487;-59
2023/06/27 10:46:10;;;;;;;11.00;4.78;;;;;;;27.76;48.77;100270.25;21083040;28;20541;-59
2023/06/27 10:56:19;;;;;;;9.15;4.38;;;;;;;27.78;48.96;100256.69;21082365;28;20044;-59
2023/06/27 11:06:20;;;;;;;8.63;4.20;;;;;;;27.82;49.15;100252.00;21081761;28;20032;-59
2023/06/27 11:16:25;;;;;;;9.18;3.95;;;;;;;27.82;48.99;100260.44;21080937;28;20040;-59
2023/06/27 11:26:27;;;;;;;9.20;3.88;;;;;;;27.83;49.09;100275.31;21068363;28;20445;-59
2023/06/27 11:36:31;;;;;;;6.03;4.05;;;;;;;27.83;49.08;100281.78;21046625;28;20480;-58
2023/06/27 11:46:33;;;;;;;7.60;3.45;;;;;;;27.83;49.13;100304.25;20993476;28;20441;-58
2023/06/27 11:56:40;;;;;;;8.35;4.05;;;;;;;27.83;49.17;100365.28;21045483;28;20040;-59
2023/06/27 12:06:45;;;;;;;6.35;3.88;;;;;;;27.84;49.40;100350.06;21075481;28;20101;-59
2023/06/27 12:16:46;;;;;;;6.95;3.97;;;;;;;27.85;49.67;100363.78;21075145;28;20090;-59
2023/06/27 12:26:48;;;;;;;5.30;3.88;;;;;;;27.85;49.85;100369.41;21073989;28;20032;-57
2023/06/27 12:36:52;;;;;;;18.00;4.65;;;;;;;27.85;49.95;100358.16;21070842;28;20044;-58
2023/06/27 12:46:54;;;;;;;22.77;5.97;;;;;;;27.85;50.27;100380.63;21084121;28;20076;-59
2023/06/27 12:56:55;;;;;;;20.50;5.13;;;;;;;27.84;50.11;100390.25;21091920;28;20044;-58
2023/06/27 13:06:59;;;;;;;16.10;5.13;;;;;;;27.83;50.54;100405.47;21091528;28;20418;-58
2023/06/27 13:17:02;;;;;;;14.27;4.82;;;;;;;27.85;50.27;100414.38;21089506;28;20044;-59
2023/06/27 13:27:04;;;;;;;8.48;3.88;;;;;;;27.85;49.75;100425.63;21088371;28;20104;-58
2023/06/27 13:37:05;;;;;;;16.60;5.07;;;;;;;27.86;50.20;100438.53;21087714;28;20048;-59
2023/06/27 13:47:07;;;;;;;16.98;4.95;;;;;;;27.83;49.91;100444.84;21087874;28;20028;-59
2023/06/27 13:57:10;;;;;;;18.55;4.55;;;;;;;27.83;49.91;100461.72;21087180;28;20467;-58
2023/06/27 14:07:11;;;;;;;16.98;4.38;;;;;;;27.82;50.07;100476.13;21087919;28;20040;-59
2023/06/27 14:17:12;;;;;;;14.50;4.07;;;;;;;27.81;49.60;100485.69;21086076;28;20069;-59
2023/06/27 14:27:14;;;;;;;10.63;3.88;;;;;;;27.81;49.60;100486.53;21084616;28;20039;-59
2023/06/27 14:37:15;;;;;;;11.07;3.20;;;;;;;27.81;49.60;100486.53;21085296;28;20475;-57
2023/06/27 14:47:17;;;;;;;15.98;3.67;;;;;;;27.82;49.53;100481.75;21084866;28;20032;-57
2023/06/27 14:57:21;;;;;;;13.43;3.92;;;;;;;27.82;49.62;100488.19;21083185;28;20036;-57
2023/06/27 15:07:22;;;;;;;15.60;4.47;;;;;;;27.84;49.97;100490.66;21080739;28;20055;-59
2023/06/27 15:17:24;;;;;;;18.02;4.22;;;;;;;27.85;49.65;100478.22;21082170;28;20040;-59
2023/06/27 15:27:26;;;;;;;16.35;4.00;;;;;;;27.84;49.54;100468.97;21081025;28;20093;-58
2023/06/27 15:37:28;;;;;;;23.95;5.57;;;;;;;27.85;50.00;100470.63;21076204;28;20125;-59
2023/06/27 15:47:29;;;;;;;28.20;4.65;;;;;;;27.88;49.77;100468.31;21080509;28;20056;-58
2023/06/27 15:57:31;;;;;;;23.95;4.35;;;;;;;27.88;49.76;100468.31;21078980;28;20475;-58
2023/06/27 16:07:33;;;;;;;19.10;4.60;;;;;;;27.84;49.83;100446.47;21079200;28;20048;-59
2023/06/27 16:17:34;;;;;;;18.77;4.75;;;;;;;27.84;50.01;100440.84;21077406;28;20048;-60
2023/06/27 16:27:36;;;;;;;22.10;4.15;;;;;;;27.89;49.79;100444.66;21078130;28;20094;-60
2023/06/27 16:37:37;;;;;;;12.80;4.50;;;;;;;27.89;49.84;100442.66;21075729;28;20044;-58
2023/06/27 16:47:38;;;;;;;14.35;3.30;;;;;;;27.84;49.56;100414.72;21076991;28;20043;-59
2023/06/27 16:57:40;;;;;;;9.45;3.78;;;;;;;27.92;49.74;100419.47;21074453;28;20113;-58
2023/06/27 17:07:42;;;;;;;14.38;3.55;;;;;;;27.93;49.70;100397.81;21075554;28;20113;-58
2023/06/27 17:17:43;;;;;;;9.73;3.30;;;;;;;27.92;49.57;100368.03;21076206;28;20040;-58
2023/06/27 17:27:47;;;;;;;10.10;3.15;;;;;;;27.93;49.87;100364.88;21075589;28;20044;-58
2023/06/27 17:37:49;;;;;;;9.73;3.30;;;;;;;27.94;49.47;100341.22;21091680;28;20036;-58
2023/06/27 17:47:51;;;;;;;10.63;2.92;;;;;;;27.94;49.57;100332.78;21090302;28;20078;-58
2023/06/27 17:57:52;;;;;;;4.40;2.80;;;;;;;27.95;49.68;100337.25;21086885;28;20052;-58
2023/06/27 18:07:56;;;;;;;8.48;2.55;;;;;;;27.97;49.62;100343.34;21037831;28;20036;-59
2023/06/27 18:17:58;;;;;;;8.98;3.00;;;;;;;27.96;49.38;100322.03;21009625;28;20094;-57
2023/06/27 18:28:03;;;;;;;7.03;2.97;;;;;;;27.98;49.24;100304.78;21030757;28;20066;-58
2023/06/27 18:38:04;;;;;;;6.85;2.80;;;;;;;27.99;49.56;100312.06;21082241;28;20073;-59
2023/06/27 18:48:06;;;;;;;8.15;2.85;;;;;;;28.01;49.45;100298.50;21034455;28;20044;-59
2023/06/27 18:58:08;;;;;;;5.95;2.55;;;;;;;28.00;49.31;100300.50;21054264;28;20344;-58
2023/06/27 19:08:10;;;;;;;5.18;2.58;;;;;;;28.00;49.45;100285.59;21041631;28;20056;-59
2023/06/27 19:18:11;;;;;;;6.45;2.58;;;;;;;28.03;49.74;100273.66;21080234;28;20032;-56
2023/06/27 19:28:12;;;;;;;13.68;3.63;;;;;;;28.04;49.49;100264.03;21078155;28;20051;-57
2023/06/27 19:38:14;;;;;;;18.58;4.75;;;;;;;28.03;49.52;100279.28;21012550;28;20041;-57
2023/06/27 19:48:15;;;;;;;17.33;4.55;;;;;;;28.06;49.40;100250.47;20997874;28;20410;-58
2023/06/27 19:58:18;;;;;;;48.58;7.95;;;;;;;28.05;49.47;100232.78;21077311;28;20043;-57
2023/06/27 20:08:20;;;;;;;57.83;10.02;;;;;;;28.07;49.44;100235.22;21052526;28;20081;-57
2023/06/27 20:18:22;;;;;;;68.18;12.10;;;;;;;28.09;49.14;100300.41;21075632;28;20097;-59
2023/06/27 20:28:23;;;;;;;72.72;10.35;;;;;;;28.08;49.26;100305.19;21076285;28;20044;-57
2023/06/27 20:38:25;;;;;;;44.42;10.18;;;;;;;28.07;49.53;100311.16;21064950;28;20036;-59
2023/06/27 20:48:26;;;;;;;27.80;8.73;;;;;;;28.08;49.71;100329.69;21051897;28;20433;-57
2023/06/27 20:58:28;;;;;;;35.35;8.93;;;;;;;28.06;49.77;100380.66;21076809;28;20497;-59
2023/06/27 21:08:29;;;;;;;29.83;7.20;;;;;;;28.09;49.45;100470.00;21089078;28;20097;-59
2023/06/27 21:18:31;;;;;;;26.23;7.57;;;;;;;28.10;49.40;100473.63;21090222;28;20040;-59
2023/06/27 21:28:32;;;;;;;25.40;6.95;;;;;;;28.10;49.32;100400.50;21091685;28;20048;-59
2023/06/27 21:38:37;;;;;;;20.52;6.20;;;;;;;28.08;49.24;100394.38;21090971;28;20040;-57
2023/06/27 21:48:44;;;;;;;12.63;5.20;;;;;;;28.10;49.53;100423.00;21088647;28;20113;-56
2023/06/27 21:58:46;;;;;;;18.27;5.60;;;;;;;28.10;49.32;100420.19;21089427;28;20467;-58
2023/06/27 22:08:47;;;;;;;15.25;4.60;;;;;;;28.08;49.33;100461.88;21088288;28;20032;-58
2023/06/27 22:18:49;;;;;;;9.13;3.75;;;;;;;28.10;49.59;100555.19;21085039;28;20048;-59
2023/06/27 22:28:54;;;;;;;13.20;4.15;;;;;;;28.11;49.64;100590.59;21086251;28;20404;-59
2023/06/27 22:38:55;;;;;;;10.93;3.90;;;;;;;27.98;49.49;100552.28;21085590;28;20541;-57
2023/06/27 22:48:57;;;;;;;11.50;3.40;;;;;;;28.11;49.38;100551.22;21085416;28;20445;-58
2023/06/27 22:58:58;;;;;;;11.40;4.07;;;;;;;28.06;49.63;100531.72;21083656;28;20024;-59
2023/06/27 23:09:11;;;;;;;9.27;3.15;;;;;;;28.11;49.46;100520.28;21083475;28;20051;-58
2023/06/27 23:19:13;;;;;;;7.65;3.78;;;;;;;28.14;49.43;100544.91;21080946;28;20070;-59
2023/06/27 23:29:16;;;;;;;5.68;3.28;;;;;;;28.15;49.54;100569.06;21078643;28;20036;-59
2023/06/27 23:39:19;;;;;;;5.93;2.83;;;;;;;28.15;49.63;100571.88;21080077;28;20036;-57
2023/06/27 23:49:20;;;;;;;6.70;2.72;;;;;;;28.17;49.37;100574.34;21078732;28;20044;-59
2023/06/27 23:59:22;;;;;;;6.25;2.53;;;;;;;28.17;49.55;100566.72;21076699;28;20070;-58
